KOKK/OKK METAR and TAF weather

Enter ICAO airport designator
Station Type Date Time Source
KOKK METAR 2022/01/18 06:56 UTC NOAA

KOKK 180656Z AUTO 26011KT 10SM OVC021 M03/M06 A2998 RMK AO2 SLP163 T10281061 FZRANO PNO $


Station Type Date Time Source
KOKK Decoded METAR 2022/01/18 06:56 UTC NOAA

Kokomo, Kokomo Municipal Airport, IN, United States (KOKK) 40-32N 086-04W
Jan 18, 2022 - 01:56 AM EST / 2022.01.18 0656 UTC
Wind: from the W (260 degrees) at 13 MPH (11 KT):0
Visibility: 10 mile(s):0
Sky conditions: overcast
Temperature: 27.0 F (-2.8 C)
Windchill: 15 F (-9 C):1
Dew Point: 21.0 F (-6.1 C)
Relative Humidity: 77%
Pressure (altimeter): 29.98 in. Hg (1015 hPa)
ob: KOKK 180656Z AUTO 26011KT 10SM OVC021 M03/M06 A2998 RMK AO2 SLP163 T10281061 FZRANO PNO
cycle: 7

Station Type Date Time Source
KOKK TAF UTC NOAA

Error!

Example: see airport list